sensor_id;sensor_type;location;lat;lon;timestamp;P1;durP1;ratioP1;P2;durP2;ratioP2
61200;SDS011;47065;52.898;6.992;2023-10-08T00:00:46;1.38;;;1.20;;
61200;SDS011;47065;52.898;6.992;2023-10-08T00:03:15;2.03;;;1.83;;
61200;SDS011;47065;52.898;6.992;2023-10-08T00:05:45;5.75;;;1.13;;
61200;SDS011;47065;52.898;6.992;2023-10-08T00:08:12;2.13;;;0.98;;
61200;SDS011;47065;52.898;6.992;2023-10-08T00:10:41;2.75;;;1.02;;
61200;SDS011;47065;52.898;6.992;2023-10-08T00:13:11;1.33;;;1.10;;
61200;SDS011;47065;52.898;6.992;2023-10-08T00:15:40;1.63;;;0.95;;
61200;SDS011;47065;52.898;6.992;2023-10-08T00:18:15;1.58;;;1.45;;
61200;SDS011;47065;52.898;6.992;2023-10-08T00:20:50;2.13;;;1.50;;
61200;SDS011;47065;52.898;6.992;2023-10-08T00:23:23;3.65;;;2.00;;
61200;SDS011;47065;52.898;6.992;2023-10-08T00:25:53;3.53;;;2.28;;
61200;SDS011;47065;52.898;6.992;2023-10-08T00:28:19;2.22;;;1.70;;
61200;SDS011;47065;52.898;6.992;2023-10-08T00:30:49;3.10;;;1.98;;
61200;SDS011;47065;52.898;6.992;2023-10-08T00:33:18;2.28;;;1.70;;
61200;SDS011;47065;52.898;6.992;2023-10-08T00:35:44;3.25;;;1.98;;
61200;SDS011;47065;52.898;6.992;2023-10-08T00:38:10;2.10;;;1.92;;
61200;SDS011;47065;52.898;6.992;2023-10-08T00:40:48;2.40;;;1.90;;
61200;SDS011;47065;52.898;6.992;2023-10-08T00:43:32;2.33;;;2.03;;
61200;SDS011;47065;52.898;6.992;2023-10-08T00:46:00;3.08;;;2.35;;
61200;SDS011;47065;52.898;6.992;2023-10-08T00:48:27;3.58;;;2.05;;
61200;SDS011;47065;52.898;6.992;2023-10-08T00:50:56;1.70;;;1.60;;
61200;SDS011;47065;52.898;6.992;2023-10-08T00:53:35;1.77;;;1.65;;
61200;SDS011;47065;52.898;6.992;2023-10-08T00:56:05;1.83;;;1.65;;
61200;SDS011;47065;52.898;6.992;2023-10-08T00:58:41;2.42;;;1.35;;
61200;SDS011;47065;52.898;6.992;2023-10-08T01:01:11;2.42;;;1.83;;
61200;SDS011;47065;52.898;6.992;2023-10-08T01:03:37;1.90;;;1.70;;
61200;SDS011;47065;52.898;6.992;2023-10-08T01:06:13;1.27;;;1.17;;
61200;SDS011;47065;52.898;6.992;2023-10-08T01:08:47;4.63;;;2.03;;
61200;SDS011;47065;52.898;6.992;2023-10-08T01:11:20;2.13;;;1.33;;
61200;SDS011;47065;52.898;6.992;2023-10-08T01:14:11;1.42;;;1.08;;
61200;SDS011;47065;52.898;6.992;2023-10-08T01:16:36;1.23;;;0.98;;
61200;SDS011;47065;52.898;6.992;2023-10-08T01:19:04;1.27;;;1.17;;
61200;SDS011;47065;52.898;6.992;2023-10-08T01:21:37;3.78;;;1.45;;
61200;SDS011;47065;52.898;6.992;2023-10-08T01:24:05;17.30;;;1.67;;
61200;SDS011;47065;52.898;6.992;2023-10-08T01:26:34;1.92;;;1.27;;
61200;SDS011;47065;52.898;6.992;2023-10-08T01:29:04;1.30;;;1.20;;
61200;SDS011;47065;52.898;6.992;2023-10-08T01:31:34;1.17;;;1.08;;
61200;SDS011;47065;52.898;6.992;2023-10-08T01:34:02;1.40;;;1.30;;
61200;SDS011;47065;52.898;6.992;2023-10-08T01:36:30;2.42;;;1.35;;
61200;SDS011;47065;52.898;6.992;2023-10-08T01:38:56;1.35;;;1.25;;
61200;SDS011;47065;52.898;6.992;2023-10-08T01:41:23;1.85;;;1.42;;
61200;SDS011;47065;52.898;6.992;2023-10-08T01:43:55;2.05;;;1.52;;
61200;SDS011;47065;52.898;6.992;2023-10-08T01:46:25;1.50;;;1.35;;
61200;SDS011;47065;52.898;6.992;2023-10-08T01:48:51;1.10;;;1.00;;
61200;SDS011;47065;52.898;6.992;2023-10-08T01:51:40;2.72;;;1.60;;
61200;SDS011;47065;52.898;6.992;2023-10-08T01:54:12;2.38;;;1.70;;
61200;SDS011;47065;52.898;6.992;2023-10-08T01:56:43;1.75;;;1.40;;
61200;SDS011;47065;52.898;6.992;2023-10-08T01:59:12;1.77;;;1.67;;
61200;SDS011;47065;52.898;6.992;2023-10-08T02:01:41;6.22;;;2.08;;
61200;SDS011;47065;52.898;6.992;2023-10-08T02:04:10;2.58;;;1.85;;
61200;SDS011;47065;52.898;6.992;2023-10-08T02:06:41;3.78;;;2.08;;
61200;SDS011;47065;52.898;6.992;2023-10-08T02:09:07;2.17;;;1.90;;
61200;SDS011;47065;52.898;6.992;2023-10-08T02:11:54;2.97;;;1.75;;
61200;SDS011;47065;52.898;6.992;2023-10-08T02:14:19;1.20;;;1.10;;
61200;SDS011;47065;52.898;6.992;2023-10-08T02:16:46;2.65;;;1.67;;
61200;SDS011;47065;52.898;6.992;2023-10-08T02:19:12;1.90;;;1.08;;
61200;SDS011;47065;52.898;6.992;2023-10-08T02:21:43;1.63;;;1.50;;
61200;SDS011;47065;52.898;6.992;2023-10-08T02:24:11;2.00;;;1.40;;
61200;SDS011;47065;52.898;6.992;2023-10-08T02:26:38;1.52;;;1.40;;
61200;SDS011;47065;52.898;6.992;2023-10-08T02:29:04;5.03;;;2.13;;
61200;SDS011;47065;52.898;6.992;2023-10-08T02:31:37;4.47;;;1.80;;
61200;SDS011;47065;52.898;6.992;2023-10-08T02:34:08;2.03;;;1.02;;
61200;SDS011;47065;52.898;6.992;2023-10-08T02:36:35;1.80;;;1.13;;
61200;SDS011;47065;52.898;6.992;2023-10-08T02:39:06;2.55;;;1.40;;
61200;SDS011;47065;52.898;6.992;2023-10-08T02:41:53;1.98;;;1.55;;
61200;SDS011;47065;52.898;6.992;2023-10-08T02:44:22;1.70;;;0.98;;
61200;SDS011;47065;52.898;6.992;2023-10-08T02:46:48;1.95;;;0.90;;
61200;SDS011;47065;52.898;6.992;2023-10-08T02:49:14;1.23;;;0.93;;
61200;SDS011;47065;52.898;6.992;2023-10-08T02:51:50;4.35;;;1.00;;
61200;SDS011;47065;52.898;6.992;2023-10-08T02:54:18;3.10;;;0.85;;
61200;SDS011;47065;52.898;6.992;2023-10-08T02:56:51;0.80;;;0.80;;
61200;SDS011;47065;52.898;6.992;2023-10-08T02:59:22;1.48;;;1.00;;
61200;SDS011;47065;52.898;6.992;2023-10-08T03:01:49;1.13;;;1.02;;
61200;SDS011;47065;52.898;6.992;2023-10-08T03:04:17;1.25;;;0.93;;
61200;SDS011;47065;52.898;6.992;2023-10-08T03:06:48;1.48;;;0.90;;
61200;SDS011;47065;52.898;6.992;2023-10-08T03:09:18;1.67;;;1.58;;
61200;SDS011;47065;52.898;6.992;2023-10-08T03:11:51;2.58;;;1.38;;
61200;SDS011;47065;52.898;6.992;2023-10-08T03:14:18;4.95;;;1.70;;
61200;SDS011;47065;52.898;6.992;2023-10-08T03:16:53;2.10;;;1.23;;
61200;SDS011;47065;52.898;6.992;2023-10-08T03:19:32;2.17;;;1.27;;
61200;SDS011;47065;52.898;6.992;2023-10-08T03:21:57;1.30;;;1.20;;
61200;SDS011;47065;52.898;6.992;2023-10-08T03:24:23;2.00;;;1.40;;
61200;SDS011;47065;52.898;6.992;2023-10-08T03:27:02;4.45;;;1.30;;
61200;SDS011;47065;52.898;6.992;2023-10-08T03:29:33;1.98;;;1.27;;
61200;SDS011;47065;52.898;6.992;2023-10-08T03:32:05;2.97;;;1.45;;
61200;SDS011;47065;52.898;6.992;2023-10-08T03:34:31;7.32;;;1.95;;
61200;SDS011;47065;52.898;6.992;2023-10-08T03:36:59;4.05;;;1.60;;
61200;SDS011;47065;52.898;6.992;2023-10-08T03:39:31;2.45;;;1.50;;
61200;SDS011;47065;52.898;6.992;2023-10-08T03:42:18;2.78;;;2.10;;
61200;SDS011;47065;52.898;6.992;2023-10-08T03:44:50;4.13;;;1.50;;
61200;SDS011;47065;52.898;6.992;2023-10-08T03:47:18;1.65;;;1.55;;
61200;SDS011;47065;52.898;6.992;2023-10-08T03:49:47;3.17;;;1.75;;
61200;SDS011;47065;52.898;6.992;2023-10-08T03:52:16;6.43;;;2.47;;
61200;SDS011;47065;52.898;6.992;2023-10-08T03:54:48;5.00;;;2.03;;
61200;SDS011;47065;52.898;6.992;2023-10-08T03:57:20;3.08;;;1.77;;
61200;SDS011;47065;52.898;6.992;2023-10-08T04:00:06;2.90;;;1.88;;
61200;SDS011;47065;52.898;6.992;2023-10-08T04:02:46;4.00;;;2.25;;
61200;SDS011;47065;52.898;6.992;2023-10-08T04:05:23;2.85;;;1.92;;
61200;SDS011;47065;52.898;6.992;2023-10-08T04:07:57;5.68;;;2.00;;
61200;SDS011;47065;52.898;6.992;2023-10-08T04:10:23;3.08;;;2.78;;
61200;SDS011;47065;52.898;6.992;2023-10-08T04:13:04;5.15;;;2.22;;
61200;SDS011;47065;52.898;6.992;2023-10-08T04:15:34;4.68;;;2.60;;
61200;SDS011;47065;52.898;6.992;2023-10-08T04:18:07;4.50;;;3.00;;
61200;SDS011;47065;52.898;6.992;2023-10-08T04:20:33;7.13;;;2.25;;
61200;SDS011;47065;52.898;6.992;2023-10-08T04:23:19;2.10;;;1.67;;
61200;SDS011;47065;52.898;6.992;2023-10-08T04:25:47;4.28;;;2.20;;
61200;SDS011;47065;52.898;6.992;2023-10-08T04:28:19;3.63;;;1.98;;
61200;SDS011;47065;52.898;6.992;2023-10-08T04:30:46;4.38;;;1.88;;
61200;SDS011;47065;52.898;6.992;2023-10-08T04:33:13;3.80;;;1.70;;
61200;SDS011;47065;52.898;6.992;2023-10-08T04:35:43;4.03;;;2.10;;
61200;SDS011;47065;52.898;6.992;2023-10-08T04:38:29;3.45;;;1.88;;
61200;SDS011;47065;52.898;6.992;2023-10-08T04:41:01;3.97;;;1.58;;
61200;SDS011;47065;52.898;6.992;2023-10-08T04:43:33;3.25;;;1.60;;
61200;SDS011;47065;52.898;6.992;2023-10-08T04:46:02;2.58;;;1.60;;
61200;SDS011;47065;52.898;6.992;2023-10-08T04:48:30;4.63;;;1.55;;
61200;SDS011;47065;52.898;6.992;2023-10-08T04:51:01;4.53;;;1.23;;
61200;SDS011;47065;52.898;6.992;2023-10-08T04:53:29;6.28;;;1.40;;
61200;SDS011;47065;52.898;6.992;2023-10-08T04:56:01;4.18;;;1.40;;
61200;SDS011;47065;52.898;6.992;2023-10-08T04:58:32;4.75;;;1.55;;
61200;SDS011;47065;52.898;6.992;2023-10-08T05:01:02;4.13;;;1.40;;
61200;SDS011;47065;52.898;6.992;2023-10-08T05:03:49;2.83;;;1.50;;
61200;SDS011;47065;52.898;6.992;2023-10-08T05:06:25;2.72;;;1.23;;
61200;SDS011;47065;52.898;6.992;2023-10-08T05:09:02;4.55;;;1.60;;
61200;SDS011;47065;52.898;6.992;2023-10-08T05:11:44;3.05;;;1.13;;
61200;SDS011;47065;52.898;6.992;2023-10-08T05:14:10;4.53;;;1.90;;
61200;SDS011;47065;52.898;6.992;2023-10-08T05:16:52;7.40;;;1.75;;
61200;SDS011;47065;52.898;6.992;2023-10-08T05:19:50;5.88;;;1.60;;
61200;SDS011;47065;52.898;6.992;2023-10-08T05:22:36;4.10;;;1.60;;
61200;SDS011;47065;52.898;6.992;2023-10-08T05:25:02;2.67;;;1.40;;
61200;SDS011;47065;52.898;6.992;2023-10-08T05:27:44;2.63;;;1.55;;
61200;SDS011;47065;52.898;6.992;2023-10-08T05:30:16;4.18;;;1.23;;
61200;SDS011;47065;52.898;6.992;2023-10-08T05:33:05;5.35;;;1.55;;
61200;SDS011;47065;52.898;6.992;2023-10-08T05:35:38;3.83;;;1.60;;
61200;SDS011;47065;52.898;6.992;2023-10-08T05:38:07;10.50;;;2.20;;
61200;SDS011;47065;52.898;6.992;2023-10-08T05:41:03;4.40;;;1.70;;
61200;SDS011;47065;52.898;6.992;2023-10-08T05:43:42;4.75;;;1.77;;
61200;SDS011;47065;52.898;6.992;2023-10-08T05:46:11;4.72;;;2.15;;
61200;SDS011;47065;52.898;6.992;2023-10-08T05:51:37;3.10;;;1.58;;
61200;SDS011;47065;52.898;6.992;2023-10-08T05:54:22;6.07;;;2.28;;
61200;SDS011;47065;52.898;6.992;2023-10-08T05:56:52;3.50;;;1.90;;
61200;SDS011;47065;52.898;6.992;2023-10-08T05:59:30;4.60;;;1.80;;
61200;SDS011;47065;52.898;6.992;2023-10-08T06:02:04;4.85;;;2.35;;
61200;SDS011;47065;52.898;6.992;2023-10-08T06:04:51;5.05;;;2.53;;
61200;SDS011;47065;52.898;6.992;2023-10-08T06:10:18;6.85;;;3.38;;
61200;SDS011;47065;52.898;6.992;2023-10-08T06:15:36;5.05;;;3.20;;
61200;SDS011;47065;52.898;6.992;2023-10-08T06:18:26;4.72;;;2.95;;
61200;SDS011;47065;52.898;6.992;2023-10-08T06:20:53;8.15;;;3.75;;
61200;SDS011;47065;52.898;6.992;2023-10-08T06:23:25;6.70;;;3.65;;
61200;SDS011;47065;52.898;6.992;2023-10-08T06:25:53;9.68;;;3.72;;
61200;SDS011;47065;52.898;6.992;2023-10-08T06:28:44;6.20;;;3.67;;
61200;SDS011;47065;52.898;6.992;2023-10-08T06:31:10;7.97;;;3.40;;
61200;SDS011;47065;52.898;6.992;2023-10-08T06:33:39;6.45;;;3.22;;
61200;SDS011;47065;52.898;6.992;2023-10-08T06:36:06;11.43;;;4.05;;
61200;SDS011;47065;52.898;6.992;2023-10-08T06:38:41;10.63;;;4.65;;
61200;SDS011;47065;52.898;6.992;2023-10-08T06:41:12;8.77;;;4.22;;
61200;SDS011;47065;52.898;6.992;2023-10-08T06:43:38;12.10;;;5.13;;
61200;SDS011;47065;52.898;6.992;2023-10-08T06:46:08;9.90;;;4.90;;
61200;SDS011;47065;52.898;6.992;2023-10-08T06:48:37;10.35;;;4.95;;
61200;SDS011;47065;52.898;6.992;2023-10-08T06:51:07;12.75;;;4.72;;
61200;SDS011;47065;52.898;6.992;2023-10-08T06:53:39;10.63;;;5.70;;
61200;SDS011;47065;52.898;6.992;2023-10-08T06:56:05;12.57;;;4.18;;
61200;SDS011;47065;52.898;6.992;2023-10-08T06:58:31;9.35;;;3.85;;
61200;SDS011;47065;52.898;6.992;2023-10-08T07:00:57;16.70;;;5.28;;
61200;SDS011;47065;52.898;6.992;2023-10-08T07:03:24;18.02;;;6.03;;
61200;SDS011;47065;52.898;6.992;2023-10-08T07:05:53;14.32;;;5.03;;
61200;SDS011;47065;52.898;6.992;2023-10-08T07:08:29;6.65;;;3.67;;
61200;SDS011;47065;52.898;6.992;2023-10-08T07:10:57;9.73;;;4.53;;
61200;SDS011;47065;52.898;6.992;2023-10-08T07:13:27;9.63;;;4.80;;
61200;SDS011;47065;52.898;6.992;2023-10-08T07:15:54;16.60;;;4.75;;
61200;SDS011;47065;52.898;6.992;2023-10-08T07:18:21;13.13;;;5.00;;
61200;SDS011;47065;52.898;6.992;2023-10-08T07:20:53;10.43;;;4.50;;
61200;SDS011;47065;52.898;6.992;2023-10-08T07:23:26;11.02;;;4.43;;
61200;SDS011;47065;52.898;6.992;2023-10-08T07:26:02;11.27;;;4.30;;
61200;SDS011;47065;52.898;6.992;2023-10-08T07:28:38;8.32;;;3.80;;
61200;SDS011;47065;52.898;6.992;2023-10-08T07:31:13;10.80;;;4.20;;
61200;SDS011;47065;52.898;6.992;2023-10-08T07:33:50;6.82;;;3.65;;
61200;SDS011;47065;52.898;6.992;2023-10-08T07:36:23;11.10;;;5.90;;
61200;SDS011;47065;52.898;6.992;2023-10-08T07:38:50;8.02;;;4.13;;
61200;SDS011;47065;52.898;6.992;2023-10-08T07:41:16;13.15;;;5.30;;
61200;SDS011;47065;52.898;6.992;2023-10-08T07:43:44;13.63;;;5.20;;
61200;SDS011;47065;52.898;6.992;2023-10-08T07:46:23;9.68;;;4.32;;
61200;SDS011;47065;52.898;6.992;2023-10-08T07:48:54;10.02;;;3.88;;
61200;SDS011;47065;52.898;6.992;2023-10-08T07:51:20;9.80;;;4.65;;
61200;SDS011;47065;52.898;6.992;2023-10-08T07:53:49;10.70;;;4.22;;
61200;SDS011;47065;52.898;6.992;2023-10-08T07:56:24;16.58;;;4.70;;
61200;SDS011;47065;52.898;6.992;2023-10-08T07:58:51;6.65;;;3.30;;
61200;SDS011;47065;52.898;6.992;2023-10-08T08:01:17;9.88;;;3.92;;
61200;SDS011;47065;52.898;6.992;2023-10-08T08:03:45;12.63;;;4.10;;
61200;SDS011;47065;52.898;6.992;2023-10-08T08:06:13;10.73;;;4.32;;
61200;SDS011;47065;52.898;6.992;2023-10-08T08:08:40;5.57;;;2.88;;
61200;SDS011;47065;52.898;6.992;2023-10-08T08:11:07;11.63;;;3.55;;
61200;SDS011;47065;52.898;6.992;2023-10-08T08:13:42;7.45;;;2.47;;
61200;SDS011;47065;52.898;6.992;2023-10-08T08:16:12;7.40;;;3.10;;
61200;SDS011;47065;52.898;6.992;2023-10-08T08:18:45;8.70;;;3.28;;
61200;SDS011;47065;52.898;6.992;2023-10-08T08:21:17;5.53;;;2.22;;
61200;SDS011;47065;52.898;6.992;2023-10-08T08:23:45;8.02;;;1.80;;
61200;SDS011;47065;52.898;6.992;2023-10-08T08:26:20;10.73;;;4.68;;
61200;SDS011;47065;52.898;6.992;2023-10-08T08:31:22;8.82;;;2.70;;
61200;SDS011;47065;52.898;6.992;2023-10-08T08:33:51;9.48;;;3.35;;
61200;SDS011;47065;52.898;6.992;2023-10-08T08:36:20;8.05;;;3.35;;
61200;SDS011;47065;52.898;6.992;2023-10-08T08:38:46;7.38;;;1.63;;
61200;SDS011;47065;52.898;6.992;2023-10-08T08:41:12;14.73;;;4.88;;
61200;SDS011;47065;52.898;6.992;2023-10-08T08:43:43;14.88;;;4.93;;
61200;SDS011;47065;52.898;6.992;2023-10-08T08:46:27;23.15;;;6.32;;
61200;SDS011;47065;52.898;6.992;2023-10-08T08:48:57;12.57;;;5.50;;
61200;SDS011;47065;52.898;6.992;2023-10-08T08:51:29;17.73;;;7.43;;
61200;SDS011;47065;52.898;6.992;2023-10-08T08:53:55;12.80;;;2.97;;
61200;SDS011;47065;52.898;6.992;2023-10-08T08:56:24;8.20;;;3.13;;
61200;SDS011;47065;52.898;6.992;2023-10-08T08:58:49;7.32;;;2.10;;
61200;SDS011;47065;52.898;6.992;2023-10-08T09:01:16;14.73;;;4.85;;
61200;SDS011;47065;52.898;6.992;2023-10-08T09:03:43;8.57;;;2.10;;
61200;SDS011;47065;52.898;6.992;2023-10-08T09:06:11;4.85;;;1.40;;
61200;SDS011;47065;52.898;6.992;2023-10-08T09:08:37;5.00;;;2.55;;
61200;SDS011;47065;52.898;6.992;2023-10-08T09:11:06;5.18;;;1.77;;
61200;SDS011;47065;52.898;6.992;2023-10-08T09:13:34;6.80;;;1.38;;
61200;SDS011;47065;52.898;6.992;2023-10-08T09:16:11;6.50;;;2.92;;
61200;SDS011;47065;52.898;6.992;2023-10-08T09:18:41;12.70;;;5.13;;
61200;SDS011;47065;52.898;6.992;2023-10-08T09:21:10;5.45;;;1.50;;
61200;SDS011;47065;52.898;6.992;2023-10-08T09:23:43;10.60;;;2.13;;
61200;SDS011;47065;52.898;6.992;2023-10-08T09:26:10;15.50;;;5.72;;
61200;SDS011;47065;52.898;6.992;2023-10-08T09:28:36;9.90;;;3.22;;
61200;SDS011;47065;52.898;6.992;2023-10-08T09:31:04;7.15;;;2.97;;
61200;SDS011;47065;52.898;6.992;2023-10-08T09:33:31;14.18;;;1.92;;
61200;SDS011;47065;52.898;6.992;2023-10-08T09:36:00;11.43;;;1.58;;
61200;SDS011;47065;52.898;6.992;2023-10-08T09:38:32;9.65;;;1.77;;
61200;SDS011;47065;52.898;6.992;2023-10-08T09:40:59;3.63;;;1.40;;
61200;SDS011;47065;52.898;6.992;2023-10-08T09:43:27;3.95;;;1.13;;
61200;SDS011;47065;52.898;6.992;2023-10-08T09:45:55;9.27;;;3.15;;
61200;SDS011;47065;52.898;6.992;2023-10-08T09:48:30;7.05;;;2.83;;
61200;SDS011;47065;52.898;6.992;2023-10-08T09:51:00;7.85;;;1.30;;
61200;SDS011;47065;52.898;6.992;2023-10-08T09:53:30;5.10;;;1.38;;
61200;SDS011;47065;52.898;6.992;2023-10-08T09:56:07;8.65;;;1.65;;
61200;SDS011;47065;52.898;6.992;2023-10-08T09:58:43;8.48;;;2.60;;
61200;SDS011;47065;52.898;6.992;2023-10-08T10:01:10;8.75;;;3.10;;
61200;SDS011;47065;52.898;6.992;2023-10-08T10:03:37;4.80;;;1.67;;
61200;SDS011;47065;52.898;6.992;2023-10-08T10:06:04;6.10;;;1.27;;
61200;SDS011;47065;52.898;6.992;2023-10-08T10:08:36;4.30;;;1.45;;
61200;SDS011;47065;52.898;6.992;2023-10-08T10:11:01;7.28;;;1.25;;
61200;SDS011;47065;52.898;6.992;2023-10-08T10:13:28;6.20;;;2.03;;
61200;SDS011;47065;52.898;6.992;2023-10-08T10:16:00;7.55;;;1.50;;
61200;SDS011;47065;52.898;6.992;2023-10-08T10:20:52;8.70;;;2.00;;
61200;SDS011;47065;52.898;6.992;2023-10-08T10:23:40;10.95;;;1.65;;
61200;SDS011;47065;52.898;6.992;2023-10-08T10:26:43;8.32;;;1.73;;
61200;SDS011;47065;52.898;6.992;2023-10-08T10:31:40;7.78;;;1.50;;
61200;SDS011;47065;52.898;6.992;2023-10-08T10:34:12;6.05;;;1.50;;
61200;SDS011;47065;52.898;6.992;2023-10-08T10:36:41;5.35;;;1.73;;
61200;SDS011;47065;52.898;6.992;2023-10-08T10:39:09;4.25;;;1.35;;
61200;SDS011;47065;52.898;6.992;2023-10-08T10:41:42;6.90;;;1.52;;
61200;SDS011;47065;52.898;6.992;2023-10-08T10:44:12;7.55;;;1.45;;
61200;SDS011;47065;52.898;6.992;2023-10-08T10:46:45;8.75;;;1.30;;
61200;SDS011;47065;52.898;6.992;2023-10-08T10:49:19;14.32;;;2.38;;
61200;SDS011;47065;52.898;6.992;2023-10-08T10:51:56;5.70;;;1.98;;
61200;SDS011;47065;52.898;6.992;2023-10-08T10:54:25;8.82;;;1.63;;
61200;SDS011;47065;52.898;6.992;2023-10-08T10:56:52;4.28;;;1.50;;
61200;SDS011;47065;52.898;6.992;2023-10-08T10:59:34;8.93;;;2.00;;
61200;SDS011;47065;52.898;6.992;2023-10-08T11:02:05;9.77;;;2.28;;
61200;SDS011;47065;52.898;6.992;2023-10-08T11:04:46;7.55;;;1.38;;
61200;SDS011;47065;52.898;6.992;2023-10-08T11:07:20;7.90;;;1.70;;
61200;SDS011;47065;52.898;6.992;2023-10-08T11:09:48;8.75;;;1.58;;
61200;SDS011;47065;52.898;6.992;2023-10-08T11:12:17;8.23;;;1.88;;
61200;SDS011;47065;52.898;6.992;2023-10-08T11:14:48;6.50;;;1.40;;
61200;SDS011;47065;52.898;6.992;2023-10-08T11:17:17;9.93;;;1.80;;
61200;SDS011;47065;52.898;6.992;2023-10-08T11:19:49;6.68;;;1.67;;
61200;SDS011;47065;52.898;6.992;2023-10-08T11:22:16;8.30;;;2.10;;
61200;SDS011;47065;52.898;6.992;2023-10-08T11:24:43;7.35;;;1.25;;
61200;SDS011;47065;52.898;6.992;2023-10-08T11:27:12;9.15;;;1.55;;
61200;SDS011;47065;52.898;6.992;2023-10-08T11:29:47;9.10;;;1.75;;
61200;SDS011;47065;52.898;6.992;2023-10-08T11:32:18;6.95;;;1.92;;
61200;SDS011;47065;52.898;6.992;2023-10-08T11:34:54;9.20;;;1.50;;
61200;SDS011;47065;52.898;6.992;2023-10-08T11:37:44;7.40;;;1.30;;
61200;SDS011;47065;52.898;6.992;2023-10-08T11:40:25;8.88;;;1.80;;
61200;SDS011;47065;52.898;6.992;2023-10-08T11:42:55;7.10;;;1.98;;
61200;SDS011;47065;52.898;6.992;2023-10-08T11:45:23;7.45;;;1.85;;
61200;SDS011;47065;52.898;6.992;2023-10-08T11:47:51;3.90;;;1.23;;
61200;SDS011;47065;52.898;6.992;2023-10-08T11:50:22;3.17;;;1.10;;
61200;SDS011;47065;52.898;6.992;2023-10-08T11:52:56;4.90;;;1.38;;
61200;SDS011;47065;52.898;6.992;2023-10-08T11:55:26;6.10;;;1.15;;
61200;SDS011;47065;52.898;6.992;2023-10-08T11:57:52;5.15;;;1.25;;
61200;SDS011;47065;52.898;6.992;2023-10-08T12:00:18;7.22;;;1.90;;
61200;SDS011;47065;52.898;6.992;2023-10-08T12:02:53;7.18;;;1.63;;
61200;SDS011;47065;52.898;6.992;2023-10-08T12:05:19;4.22;;;1.50;;
61200;SDS011;47065;52.898;6.992;2023-10-08T12:07:48;5.13;;;1.20;;
61200;SDS011;47065;52.898;6.992;2023-10-08T12:10:16;6.85;;;1.50;;
61200;SDS011;47065;52.898;6.992;2023-10-08T12:12:50;10.88;;;1.70;;
61200;SDS011;47065;52.898;6.992;2023-10-08T12:15:22;6.68;;;1.30;;
61200;SDS011;47065;52.898;6.992;2023-10-08T12:17:59;8.25;;;1.92;;
61200;SDS011;47065;52.898;6.992;2023-10-08T12:20:40;6.53;;;1.70;;
61200;SDS011;47065;52.898;6.992;2023-10-08T12:23:10;6.80;;;1.75;;
61200;SDS011;47065;52.898;6.992;2023-10-08T12:25:36;6.97;;;1.70;;
61200;SDS011;47065;52.898;6.992;2023-10-08T12:28:05;11.65;;;1.40;;
61200;SDS011;47065;52.898;6.992;2023-10-08T12:30:31;8.63;;;2.30;;
61200;SDS011;47065;52.898;6.992;2023-10-08T12:33:06;8.50;;;2.20;;
61200;SDS011;47065;52.898;6.992;2023-10-08T12:35:32;8.13;;;1.30;;
61200;SDS011;47065;52.898;6.992;2023-10-08T12:37:58;6.65;;;1.63;;
61200;SDS011;47065;52.898;6.992;2023-10-08T12:40:23;9.98;;;1.33;;
61200;SDS011;47065;52.898;6.992;2023-10-08T12:42:52;5.10;;;1.50;;
61200;SDS011;47065;52.898;6.992;2023-10-08T12:45:18;6.40;;;1.40;;
61200;SDS011;47065;52.898;6.992;2023-10-08T12:47:50;8.10;;;1.48;;
61200;SDS011;47065;52.898;6.992;2023-10-08T12:50:17;5.60;;;1.27;;
61200;SDS011;47065;52.898;6.992;2023-10-08T12:53:08;7.97;;;1.50;;
61200;SDS011;47065;52.898;6.992;2023-10-08T12:55:37;3.72;;;1.75;;
61200;SDS011;47065;52.898;6.992;2023-10-08T12:58:05;6.68;;;1.33;;
61200;SDS011;47065;52.898;6.992;2023-10-08T13:00:35;9.07;;;1.60;;
61200;SDS011;47065;52.898;6.992;2023-10-08T13:03:06;6.55;;;1.35;;
61200;SDS011;47065;52.898;6.992;2023-10-08T13:05:43;10.65;;;1.50;;
61200;SDS011;47065;52.898;6.992;2023-10-08T13:08:12;8.10;;;1.15;;
61200;SDS011;47065;52.898;6.992;2023-10-08T13:10:39;4.35;;;1.23;;
61200;SDS011;47065;52.898;6.992;2023-10-08T13:13:09;6.80;;;1.55;;
61200;SDS011;47065;52.898;6.992;2023-10-08T13:15:39;7.22;;;1.67;;
61200;SDS011;47065;52.898;6.992;2023-10-08T13:18:07;5.70;;;1.55;;
61200;SDS011;47065;52.898;6.992;2023-10-08T13:20:33;7.75;;;1.88;;
61200;SDS011;47065;52.898;6.992;2023-10-08T13:23:02;10.02;;;1.60;;
61200;SDS011;47065;52.898;6.992;2023-10-08T13:25:29;10.20;;;2.30;;
61200;SDS011;47065;52.898;6.992;2023-10-08T13:27:58;8.60;;;1.83;;
61200;SDS011;47065;52.898;6.992;2023-10-08T13:30:25;7.75;;;2.15;;
61200;SDS011;47065;52.898;6.992;2023-10-08T13:32:52;8.07;;;1.70;;
61200;SDS011;47065;52.898;6.992;2023-10-08T13:35:18;8.20;;;1.45;;
61200;SDS011;47065;52.898;6.992;2023-10-08T13:37:44;6.07;;;1.75;;
61200;SDS011;47065;52.898;6.992;2023-10-08T13:40:13;9.60;;;1.75;;
61200;SDS011;47065;52.898;6.992;2023-10-08T13:42:41;5.70;;;1.33;;
61200;SDS011;47065;52.898;6.992;2023-10-08T13:45:07;6.28;;;1.35;;
61200;SDS011;47065;52.898;6.992;2023-10-08T13:47:34;6.07;;;1.33;;
61200;SDS011;47065;52.898;6.992;2023-10-08T13:50:00;7.78;;;1.23;;
61200;SDS011;47065;52.898;6.992;2023-10-08T13:52:35;8.52;;;2.05;;
61200;SDS011;47065;52.898;6.992;2023-10-08T13:55:04;4.18;;;1.67;;
61200;SDS011;47065;52.898;6.992;2023-10-08T13:57:31;8.02;;;1.70;;
61200;SDS011;47065;52.898;6.992;2023-10-08T13:59:58;4.75;;;1.20;;
61200;SDS011;47065;52.898;6.992;2023-10-08T14:02:25;5.22;;;1.83;;
61200;SDS011;47065;52.898;6.992;2023-10-08T14:04:51;5.10;;;1.90;;
61200;SDS011;47065;52.898;6.992;2023-10-08T14:07:18;6.15;;;1.63;;
61200;SDS011;47065;52.898;6.992;2023-10-08T14:09:44;12.93;;;9.88;;
61200;SDS011;47065;52.898;6.992;2023-10-08T14:12:15;11.10;;;2.35;;
61200;SDS011;47065;52.898;6.992;2023-10-08T14:14:41;4.38;;;1.75;;
61200;SDS011;47065;52.898;6.992;2023-10-08T14:17:11;4.20;;;1.73;;
61200;SDS011;47065;52.898;6.992;2023-10-08T14:19:40;6.15;;;1.58;;
61200;SDS011;47065;52.898;6.992;2023-10-08T14:22:33;5.85;;;1.77;;
61200;SDS011;47065;52.898;6.992;2023-10-08T14:25:00;6.50;;;1.55;;
61200;SDS011;47065;52.898;6.992;2023-10-08T14:27:29;9.48;;;1.70;;
61200;SDS011;47065;52.898;6.992;2023-10-08T14:29:58;6.97;;;1.75;;
61200;SDS011;47065;52.898;6.992;2023-10-08T14:32:29;3.95;;;1.30;;
61200;SDS011;47065;52.898;6.992;2023-10-08T14:34:57;6.68;;;2.25;;
61200;SDS011;47065;52.898;6.992;2023-10-08T14:37:44;5.75;;;1.65;;
61200;SDS011;47065;52.898;6.992;2023-10-08T14:40:30;5.43;;;1.65;;
61200;SDS011;47065;52.898;6.992;2023-10-08T14:43:14;4.18;;;1.08;;
61200;SDS011;47065;52.898;6.992;2023-10-08T14:45:41;7.35;;;1.65;;
61200;SDS011;47065;52.898;6.992;2023-10-08T14:48:08;5.60;;;2.95;;
61200;SDS011;47065;52.898;6.992;2023-10-08T14:50:36;4.57;;;1.38;;
61200;SDS011;47065;52.898;6.992;2023-10-08T14:53:04;12.85;;;1.85;;
61200;SDS011;47065;52.898;6.992;2023-10-08T14:55:30;5.38;;;1.80;;
61200;SDS011;47065;52.898;6.992;2023-10-08T14:57:59;3.85;;;2.97;;
61200;SDS011;47065;52.898;6.992;2023-10-08T15:00:31;5.25;;;1.30;;
61200;SDS011;47065;52.898;6.992;2023-10-08T15:02:57;5.20;;;1.35;;
61200;SDS011;47065;52.898;6.992;2023-10-08T15:05:24;8.88;;;1.48;;
61200;SDS011;47065;52.898;6.992;2023-10-08T15:07:50;4.05;;;1.02;;
61200;SDS011;47065;52.898;6.992;2023-10-08T15:10:16;3.85;;;1.48;;
61200;SDS011;47065;52.898;6.992;2023-10-08T15:12:42;5.63;;;1.20;;
61200;SDS011;47065;52.898;6.992;2023-10-08T15:15:08;6.15;;;1.70;;
61200;SDS011;47065;52.898;6.992;2023-10-08T15:17:50;6.85;;;1.70;;
61200;SDS011;47065;52.898;6.992;2023-10-08T15:20:16;3.70;;;1.85;;
61200;SDS011;47065;52.898;6.992;2023-10-08T15:22:45;9.18;;;1.67;;
61200;SDS011;47065;52.898;6.992;2023-10-08T15:25:13;6.35;;;1.65;;